Airfield :
LOGIN :

Register | Disclaimer

   EN    FR    IT 

 










Legend :    VFR   Marginal VFR   IFR   Intensive IFR   Very Intensive IFR
Visi :
Ceiling :
>= 8 km
>= 3000ft
5 to 8 km
1000 to 3000 ft
1500m to 5 km
500 to 1000 ft
800 to 1500m
200 to 500 ft
< 800m
< 200 ft
Symbols :   Thunderstorms  Fog  Heavy snow  Heavy precipitations  Wind > 20 kt
SIGMETs :     Misc.  Thunderstorms  Icing  Turbulence  Mountain Waves  Volcanic Ashes






- Airport Elevation : 856 ft
- IATA code : VGO


LEVX - Vigo Peinador

CURRENT METAR :
  • 281100Z 21004KT 9999 2500S VCFG FEW030 SCT044 10/09 Q1028 NOSIG

EXPIRED METARs :
  • 281030Z 21004KT 9000 1500S R19/1300U R01/1300U BCFG FEW042 BKN050 09/08 Q1027 NOSIG
  • 281008Z 00000KT 0100 R19/1300U R01/0375D FG VV001 10/09 Q1027 NOSIG
  • 280930Z 21006KT 9999 2000S BCFG SCT032 BKN038 OVC050 09/09 Q1027 NOSIG
  • 280900Z 23004KT 200V260 9999 2000S BCFG SCT040 09/09 Q1027 TEMPO RA
  • 280830Z 23005KT 9999 1000S BCFG FEW013 SCT030 08/08 Q1026 NOSIG
  • 280800Z 23006KT 9999 R19/0750D R01/2000 BCFG SCT002 SCT027 08/08 Q1026 NOSIG

TAF AMD TAF LEVX
Valid from the 28 at 10:00 until the 29 at 06:00 UTC


281014Z 2810/2906 32009KT 9999 BKN030 TX13/2814Z TN06/2906Z
PROB30
TEMPO 2810/2811 0350 FG VV001



MET'MAP, your aeronautical weather chart ! - Copyright ORBIFLY December 2007 - Disclaimer

ORBIFLY MET'MAP TEAM :

Programming & Development : Alexandra Zaïnal
Original concept : Baudouin d'Aumeries
Technical & hardware support : Manuel Goepfert
Assistance : Marc-Olivier Méhu




SOURCES & CREDITS :

   NOAA